Time;durP1;ratioP1;P1;durP2;ratioP2;P2;SDS_P1;SDS_P2;PMS_P1;PMS_P2;Temp;Humidity;BMP_temperature;BMP_pressure;BME280_temperature;BME280_humidity;BME280_pressure;Samples;Min_cycle;Max_cycle;Signal;HPM_P1;HPM_P2
2023/01/10 00:01:15;;;;;;;0.20;0.20;;;;;;;4.07;100.00;101123.66;4997941;28;20033;-77
2023/01/10 00:03:40;;;;;;;0.20;0.20;;;;;;;4.03;100.00;101124.72;4985766;28;20081;-77
2023/01/10 00:06:06;;;;;;;0.20;0.20;;;;;;;3.94;100.00;101135.75;4979605;28;20042;-76
2023/01/10 00:08:31;;;;;;;0.30;0.30;;;;;;;4.00;100.00;101154.06;4991121;28;20566;-76
2023/01/10 00:10:56;;;;;;;0.20;0.20;;;;;;;3.87;100.00;101130.69;4993721;28;20034;-77
2023/01/10 00:13:24;;;;;;;0.20;0.20;;;;;;;3.78;100.00;101138.22;4993036;28;20125;-77
2023/01/10 00:15:54;;;;;;;0.20;0.20;;;;;;;4.07;100.00;101170.59;4991707;28;20038;-77
2023/01/10 00:18:20;;;;;;;0.10;0.10;;;;;;;3.85;100.00;101145.00;4983213;28;20030;-77
2023/01/10 00:20:47;;;;;;;0.20;0.20;;;;;;;3.76;100.00;101156.91;4995536;28;20057;-77
2023/01/10 00:23:13;;;;;;;0.20;0.20;;;;;;;3.78;100.00;101159.47;4996999;28;20407;-78
2023/01/10 00:25:39;;;;;;;0.20;0.20;;;;;;;3.77;100.00;101153.31;4997417;28;20029;-78
2023/01/10 00:28:14;;;;;;;0.20;0.20;;;;;;;4.07;100.00;101191.84;4995843;28;20040;-77
2023/01/10 00:30:39;;;;;;;0.20;0.20;;;;;;;3.82;100.00;101196.47;4978488;28;20496;-77
2023/01/10 00:33:06;;;;;;;0.20;0.20;;;;;;;3.92;100.00;101198.72;4995735;28;20030;-78
2023/01/10 00:35:31;;;;;;;0.20;0.20;;;;;;;3.71;100.00;101186.28;4994376;28;20084;-76
2023/01/10 00:38:06;;;;;;;0.20;0.20;;;;;;;3.75;100.00;101211.78;4998474;28;20441;-77
2023/01/10 00:40:32;;;;;;;0.10;0.10;;;;;;;3.71;100.00;101196.06;4998520;28;20144;-77
2023/01/10 00:45:46;;;;;;;0.28;0.28;;;;;;;3.83;100.00;101231.84;4996071;28;20084;-77
2023/01/10 00:48:12;;;;;;;0.13;0.13;;;;;;;3.72;100.00;101235.81;5001383;28;20033;-76
2023/01/10 00:50:38;;;;;;;0.20;0.20;;;;;;;3.54;100.00;101213.59;4982425;28;20116;-77
2023/01/10 00:53:03;;;;;;;0.30;0.30;;;;;;;3.54;100.00;101210.94;4979174;28;20088;-77
2023/01/10 00:55:29;;;;;;;0.20;0.20;;;;;;;3.50;100.00;101217.31;4994258;28;20053;-76
2023/01/10 00:57:54;;;;;;;0.25;0.25;;;;;;;3.25;100.00;101191.78;4997622;28;20069;-76
2023/01/10 01:00:19;;;;;;;0.20;0.20;;;;;;;3.34;100.00;101218.84;4998184;28;20037;-78
2023/01/10 01:02:45;;;;;;;0.20;0.20;;;;;;;3.30;100.00;101183.63;4982388;28;20030;-77
2023/01/10 01:05:10;;;;;;;0.20;0.20;;;;;;;3.63;100.00;101216.78;4986651;28;20037;-77
2023/01/10 01:07:35;;;;;;;0.17;0.17;;;;;;;3.73;100.00;101231.41;4998267;28;20037;-78
2023/01/10 01:12:45;;;;;;;0.20;0.20;;;;;;;3.68;100.00;101234.25;5003286;28;20040;-77
2023/01/10 01:15:11;;;;;;;0.17;0.17;;;;;;;3.59;100.00;101248.75;4992839;28;20280;-77
2023/01/10 01:17:36;;;;;;;0.10;0.10;;;;;;;3.43;100.00;101219.38;5001707;28;20030;-77
2023/01/10 01:20:01;;;;;;;0.10;0.10;;;;;;;3.46;100.00;101234.28;4983013;28;20089;-76
2023/01/10 01:22:27;;;;;;;0.20;0.20;;;;;;;3.48;100.00;101242.19;4997400;28;20033;-76
2023/01/10 01:24:52;;;;;;;0.15;0.15;;;;;;;3.59;100.00;101258.53;4997175;28;20041;-77
2023/01/10 01:27:17;;;;;;;0.13;0.13;;;;;;;3.63;100.00;101270.75;4980416;28;20705;-77
2023/01/10 01:29:43;;;;;;;0.10;0.10;;;;;;;3.40;100.00;101248.69;4980161;28;20030;-77
2023/01/10 01:32:08;;;;;;;0.10;0.10;;;;;;;3.38;100.00;101274.44;4991046;28;20927;-77
2023/01/10 01:34:33;;;;;;;0.10;0.10;;;;;;;3.38;100.00;101258.50;4997695;28;20104;-77
2023/01/10 01:36:59;;;;;;;0.15;0.15;;;;;;;3.39;100.00;101270.84;5001719;28;20061;-77
2023/01/10 01:39:24;;;;;;;0.10;0.10;;;;;;;3.42;100.00;101294.63;5003599;28;20037;-76
2023/01/10 01:41:59;;;;;;;0.17;0.17;;;;;;;3.57;100.00;101303.75;4995235;28;20422;-77
2023/01/10 01:44:31;;;;;;;0.20;0.20;;;;;;;3.64;100.00;101306.13;5001827;28;20029;-78
2023/01/10 01:47:07;;;;;;;0.20;0.20;;;;;;;3.57;100.00;101274.53;4983350;28;20057;-77
2023/01/10 01:49:39;;;;;;;0.20;0.20;;;;;;;3.74;100.00;101276.47;4999101;28;20026;-78
2023/01/10 01:52:08;;;;;;;0.20;0.20;;;;;;;3.75;100.00;101286.16;5002748;28;20030;-76
2023/01/10 01:54:34;;;;;;;0.10;0.10;;;;;;;3.78;100.00;101277.22;5003261;28;20037;-79
2023/01/10 01:57:03;;;;;;;0.20;0.20;;;;;;;3.75;100.00;101280.00;4984507;28;20026;-77
2023/01/10 01:59:35;;;;;;;0.20;0.20;;;;;;;3.74;100.00;101291.56;5002670;28;20041;-76
2023/01/10 02:02:05;;;;;;;0.15;0.15;;;;;;;3.88;100.00;101321.03;4983962;28;20034;-76
2023/01/10 02:04:45;;;;;;;0.10;0.10;;;;;;;3.89;100.00;101324.59;5002382;28;20025;-76
2023/01/10 02:07:12;;;;;;;0.20;0.20;;;;;;;3.88;100.00;101318.38;4975236;28;20434;-76
2023/01/10 02:09:44;;;;;;;0.17;0.17;;;;;;;3.88;100.00;101329.00;4981337;28;20483;-76
2023/01/10 02:12:10;;;;;;;0.20;0.20;;;;;;;3.71;100.00;101313.78;4998325;28;20124;-76
2023/01/10 02:14:37;;;;;;;0.20;0.20;;;;;;;3.66;100.00;101314.91;4985920;28;20038;-76
2023/01/10 02:17:02;;;;;;;0.20;0.20;;;;;;;3.65;100.00;101324.69;4978732;28;20082;-77
2023/01/10 02:19:53;;;;;;;0.20;0.20;;;;;;;3.70;100.00;101335.09;5001735;28;20493;-76
2023/01/10 02:22:41;;;;;;;0.20;0.20;;;;;;;3.71;100.00;101335.03;5019942;28;20408;-77
2023/01/10 02:25:21;;;;;;;0.20;0.20;;;;;;;3.80;100.00;101330.28;5001965;28;20022;-77
2023/01/10 02:28:11;;;;;;;0.10;0.10;;;;;;;3.85;100.00;101331.78;4998138;28;20044;-77
2023/01/10 02:30:59;;;;;;;0.17;0.17;;;;;;;3.51;100.00;101272.13;4995937;28;20030;-76
2023/01/10 02:33:34;;;;;;;0.20;0.20;;;;;;;3.98;100.00;101334.81;4994608;28;20036;-76
2023/01/10 02:36:09;;;;;;;0.20;0.20;;;;;;;3.90;100.00;101331.63;4993794;28;20117;-76
2023/01/10 02:38:52;;;;;;;0.20;0.20;;;;;;;3.86;100.00;101338.00;4996423;28;20030;-76
2023/01/10 02:41:43;;;;;;;0.20;0.20;;;;;;;3.90;100.00;101343.09;4991862;28;20029;-76
2023/01/10 02:44:20;;;;;;;0.20;0.20;;;;;;;3.97;100.00;101341.06;4976893;28;20064;-77
2023/01/10 02:46:45;;;;;;;0.13;0.13;;;;;;;3.91;100.00;101330.69;4980636;28;20498;-76
2023/01/10 02:49:11;;;;;;;0.13;0.13;;;;;;;3.94;100.00;101329.69;4992327;28;20034;-78
2023/01/10 02:51:36;;;;;;;0.30;0.30;;;;;;;3.96;100.00;101330.50;4991909;28;20912;-77
2023/01/10 02:54:08;;;;;;;0.20;0.20;;;;;;;3.78;100.00;101309.09;4993559;28;20035;-77
2023/01/10 02:56:40;;;;;;;0.17;0.17;;;;;;;4.02;100.00;101338.22;4977549;28;20030;-77
2023/01/10 02:59:28;;;;;;;0.20;0.20;;;;;;;3.95;100.00;101334.06;4993612;28;20026;-76
2023/01/10 03:02:35;;;;;;;0.10;0.10;;;;;;;3.95;100.00;101332.31;4991109;28;20075;-76
2023/01/10 03:05:12;;;;;;;0.10;0.10;;;;;;;3.62;100.00;101311.53;4997751;28;20157;-76
2023/01/10 03:07:53;;;;;;;0.10;0.10;;;;;;;3.86;100.00;101353.94;4995651;28;20113;-76
2023/01/10 03:10:29;;;;;;;0.20;0.20;;;;;;;3.67;100.00;101329.91;5001291;28;20025;-78
2023/01/10 03:12:58;;;;;;;0.20;0.20;;;;;;;3.59;100.00;101335.53;4996151;28;20412;-77
2023/01/10 03:15:27;;;;;;;0.20;0.20;;;;;;;3.69;100.00;101350.19;4983575;28;20044;-78
2023/01/10 03:17:55;;;;;;;0.20;0.20;;;;;;;3.84;100.00;101372.56;4979977;28;20321;-77
2023/01/10 03:20:21;;;;;;;0.20;0.20;;;;;;;3.63;100.00;101352.19;4998884;28;20041;-77
2023/01/10 03:22:47;;;;;;;0.20;0.20;;;;;;;3.65;100.00;101369.81;5000004;28;20030;-77
2023/01/10 03:25:14;;;;;;;0.20;0.20;;;;;;;3.77;100.00;101395.03;4993828;28;20045;-77
2023/01/10 03:27:50;;;;;;;0.20;0.20;;;;;;;3.94;100.00;101397.00;4999731;28;20032;-77
2023/01/10 03:30:29;;;;;;;0.20;0.20;;;;;;;3.82;100.00;101392.16;4995294;28;20033;-78
2023/01/10 03:32:56;;;;;;;0.20;0.20;;;;;;;3.65;100.00;101383.09;4980336;28;20026;-78
2023/01/10 03:35:23;;;;;;;0.20;0.20;;;;;;;3.71;100.00;101387.28;4989979;28;20040;-77
2023/01/10 03:37:55;;;;;;;0.13;0.13;;;;;;;3.90;100.00;101420.16;4983352;28;20049;-76
2023/01/10 03:40:31;;;;;;;0.20;0.20;;;;;;;4.04;100.00;101432.03;4981202;28;20068;-77
2023/01/10 03:45:54;;;;;;;0.10;0.10;;;;;;;4.10;100.00;101425.59;4988938;28;20036;-77
2023/01/10 03:48:20;;;;;;;0.20;0.20;;;;;;;4.15;100.00;101426.25;4985435;28;20350;-76
2023/01/10 03:50:46;;;;;;;0.30;0.30;;;;;;;4.11;100.00;101409.56;4994059;28;20423;-77
2023/01/10 03:53:13;;;;;;;0.15;0.15;;;;;;;4.26;100.00;101424.00;4981335;28;20022;-78
2023/01/10 03:55:40;;;;;;;0.20;0.20;;;;;;;4.33;100.00;101440.59;5002260;28;20631;-77
2023/01/10 03:58:06;;;;;;;0.20;0.20;;;;;;;4.27;100.00;101431.06;5004823;28;20034;-77
2023/01/10 04:00:31;;;;;;;0.20;0.20;;;;;;;4.19;100.00;101422.56;5005064;28;20507;-78
2023/01/10 04:02:58;;;;;;;0.30;0.30;;;;;;;4.33;100.00;101444.09;4981858;28;20358;-78
2023/01/10 04:05:23;;;;;;;0.20;0.20;;;;;;;4.36;100.00;101440.47;5004032;28;20037;-77
2023/01/10 04:07:48;;;;;;;0.20;0.20;;;;;;;4.09;100.00;101431.81;5001643;28;20038;-77
2023/01/10 04:10:14;;;;;;;0.15;0.15;;;;;;;4.02;100.00;101429.41;4998256;28;20141;-76
2023/01/10 04:12:39;;;;;;;0.20;0.20;;;;;;;4.07;100.00;101453.16;4992433;28;20053;-76
2023/01/10 04:15:05;;;;;;;0.20;0.20;;;;;;;3.89;100.00;101433.50;4992447;28;20384;-76
2023/01/10 04:17:30;;;;;;;0.10;0.10;;;;;;;3.83;100.00;101412.50;4988798;28;20033;-78
2023/01/10 04:19:56;;;;;;;0.20;0.20;;;;;;;4.06;100.00;101448.78;4997185;28;20072;-77
2023/01/10 04:22:21;;;;;;;0.20;0.20;;;;;;;3.87;100.00;101445.97;4982712;28;20133;-77
2023/01/10 04:24:49;;;;;;;0.10;0.10;;;;;;;3.72;100.00;101431.53;4995404;28;20080;-76
2023/01/10 04:27:15;;;;;;;0.20;0.20;;;;;;;3.79;100.00;101440.97;4984510;28;20084;-76
2023/01/10 04:29:40;;;;;;;0.20;0.20;;;;;;;3.81;100.00;101443.56;4992476;28;20552;-76
2023/01/10 04:32:05;;;;;;;0.20;0.20;;;;;;;3.53;100.00;101437.56;4992842;28;20042;-77
2023/01/10 04:34:31;;;;;;;0.20;0.20;;;;;;;3.71;100.00;101448.38;4996611;28;20026;-78
2023/01/10 04:36:56;;;;;;;0.20;0.20;;;;;;;3.82;100.00;101467.44;4999479;28;20064;-77
2023/01/10 04:39:21;;;;;;;0.20;0.20;;;;;;;3.74;100.00;101456.22;4990565;28;20123;-77
2023/01/10 04:41:47;;;;;;;0.20;0.20;;;;;;;3.69;100.00;101456.41;4983474;28;20022;-78
2023/01/10 04:44:12;;;;;;;0.20;0.20;;;;;;;3.35;100.00;101419.66;4996886;28;20141;-77
2023/01/10 04:46:37;;;;;;;0.20;0.20;;;;;;;3.57;100.00;101460.41;4987587;28;20044;-77
2023/01/10 04:49:03;;;;;;;0.20;0.20;;;;;;;3.67;100.00;101449.41;4971220;28;20149;-76
2023/01/10 04:51:28;;;;;;;0.20;0.20;;;;;;;3.74;100.00;101482.78;4998317;28;20033;-77
2023/01/10 04:53:53;;;;;;;0.17;0.17;;;;;;;3.51;100.00;101435.88;4999188;28;20069;-77
2023/01/10 04:56:20;;;;;;;0.22;0.22;;;;;;;3.70;100.00;101475.88;4996263;28;20112;-77
2023/01/10 04:58:47;;;;;;;0.22;0.22;;;;;;;3.68;100.00;101475.94;4998231;28;20469;-77
2023/01/10 05:01:19;;;;;;;0.20;0.20;;;;;;;3.64;100.00;101466.34;4998530;28;20034;-77
2023/01/10 05:03:46;;;;;;;0.20;0.20;;;;;;;3.83;100.00;101493.06;4995094;28;20069;-78
2023/01/10 05:06:12;;;;;;;0.20;0.20;;;;;;;3.65;100.00;101460.13;4996951;28;20354;-77
2023/01/10 05:08:37;;;;;;;0.20;0.20;;;;;;;3.73;100.00;101481.91;4981762;28;20032;-78
2023/01/10 05:11:02;;;;;;;0.20;0.20;;;;;;;3.80;100.00;101479.91;4998473;28;20033;-76
2023/01/10 05:13:28;;;;;;;0.20;0.20;;;;;;;3.73;100.00;101454.50;4984888;28;20392;-77
2023/01/10 05:15:56;;;;;;;0.20;0.20;;;;;;;3.97;100.00;101491.66;4994617;28;20029;-76
2023/01/10 05:18:26;;;;;;;0.20;0.20;;;;;;;4.02;100.00;101498.50;5013763;28;20096;-77
2023/01/10 05:20:52;;;;;;;0.30;0.30;;;;;;;4.03;100.00;101488.75;4995676;28;20026;-77
2023/01/10 05:23:17;;;;;;;0.20;0.20;;;;;;;3.87;100.00;101456.63;4982803;28;20029;-76
2023/01/10 05:25:43;;;;;;;0.20;0.20;;;;;;;4.12;100.00;101503.47;4995263;28;20041;-77
2023/01/10 05:28:08;;;;;;;0.28;0.28;;;;;;;4.05;100.00;101510.81;4993786;28;20053;-76
2023/01/10 05:30:34;;;;;;;0.20;0.20;;;;;;;4.12;100.00;101506.13;4974053;28;20508;-76
2023/01/10 05:32:59;;;;;;;0.20;0.20;;;;;;;3.83;100.00;101490.41;4994187;28;20070;-78
2023/01/10 05:35:24;;;;;;;0.20;0.20;;;;;;;3.82;100.00;101496.66;4980992;28;20116;-77
2023/01/10 05:37:51;;;;;;;0.30;0.30;;;;;;;3.83;100.00;101538.22;4993326;28;20036;-78
2023/01/10 05:40:16;;;;;;;0.20;0.20;;;;;;;4.01;100.00;101541.94;4989081;28;21430;-77
2023/01/10 05:42:42;;;;;;;0.28;0.28;;;;;;;4.05;100.00;101540.06;4987523;28;20030;-78
2023/01/10 05:45:08;;;;;;;0.13;0.13;;;;;;;3.84;100.00;101513.38;4996357;28;20037;-77
2023/01/10 05:47:33;;;;;;;0.20;0.20;;;;;;;3.90;100.00;101534.38;5004474;28;20060;-76
2023/01/10 05:49:58;;;;;;;0.20;0.20;;;;;;;4.01;100.00;101562.34;4995342;28;20412;-76
2023/01/10 05:52:24;;;;;;;0.20;0.20;;;;;;;3.83;100.00;101538.22;5001072;28;20583;-76
2023/01/10 05:54:49;;;;;;;0.20;0.20;;;;;;;4.06;100.00;101557.72;4985403;28;20116;-76
2023/01/10 05:57:14;;;;;;;0.20;0.20;;;;;;;3.99;100.00;101561.53;4991316;28;20037;-76
2023/01/10 05:59:40;;;;;;;0.20;0.20;;;;;;;3.92;100.00;101562.69;4995539;28;20121;-76
2023/01/10 06:02:05;;;;;;;0.20;0.20;;;;;;;3.75;100.00;101558.91;5002081;28;20025;-77
2023/01/10 06:04:31;;;;;;;0.20;0.20;;;;;;;3.86;100.00;101580.59;4989903;28;20068;-77
2023/01/10 06:06:56;;;;;;;0.25;0.25;;;;;;;3.85;100.00;101557.59;5020401;28;20052;-77
2023/01/10 06:09:21;;;;;;;0.20;0.20;;;;;;;3.73;100.00;101566.06;5002803;28;20058;-76
2023/01/10 06:11:47;;;;;;;0.30;0.30;;;;;;;3.70;100.00;101551.13;4997466;28;20072;-77
2023/01/10 06:14:12;;;;;;;0.20;0.20;;;;;;;3.54;100.00;101526.03;4982377;28;20030;-77
2023/01/10 06:16:37;;;;;;;0.20;0.20;;;;;;;3.75;100.00;101546.47;4993513;28;20404;-77
2023/01/10 06:19:03;;;;;;;0.25;0.25;;;;;;;3.63;100.00;101548.72;4983074;28;20508;-77
2023/01/10 06:21:28;;;;;;;0.10;0.10;;;;;;;3.62;100.00;101545.22;4992666;28;20655;-77
2023/01/10 06:23:53;;;;;;;0.20;0.20;;;;;;;3.79;100.00;101575.56;4994563;28;20036;-77
2023/01/10 06:26:19;;;;;;;0.20;0.20;;;;;;;3.67;100.00;101551.22;4981462;28;20030;-77
2023/01/10 06:28:44;;;;;;;0.20;0.20;;;;;;;3.85;100.00;101573.53;4986266;28;20033;-78
2023/01/10 06:31:09;;;;;;;0.20;0.20;;;;;;;3.76;100.00;101563.28;4998282;28;20052;-77
2023/01/10 06:33:37;;;;;;;0.20;0.20;;;;;;;4.09;100.00;101601.91;4994340;28;20034;-78
2023/01/10 06:36:03;;;;;;;0.20;0.20;;;;;;;3.88;100.00;101576.09;4983760;28;20060;-77
2023/01/10 06:38:28;;;;;;;0.20;0.20;;;;;;;3.89;100.00;101585.78;4984452;28;20140;-77
2023/01/10 06:40:54;;;;;;;0.20;0.20;;;;;;;3.70;100.00;101555.53;4983581;28;20380;-77
2023/01/10 06:43:19;;;;;;;0.20;0.20;;;;;;;3.81;100.00;101587.00;4993269;28;20370;-77
2023/01/10 06:45:44;;;;;;;0.20;0.20;;;;;;;4.19;100.00;101614.78;4983297;28;20505;-76
2023/01/10 06:48:10;;;;;;;0.20;0.20;;;;;;;3.93;100.00;101604.28;4992924;28;20021;-77
2023/01/10 06:50:35;;;;;;;0.25;0.25;;;;;;;4.07;100.00;101595.78;4984933;28;20025;-77
2023/01/10 06:53:02;;;;;;;0.30;0.30;;;;;;;4.14;100.00;101627.38;4997627;28;20023;-77
2023/01/10 06:55:28;;;;;;;0.20;0.20;;;;;;;4.34;100.00;101631.09;4986941;28;20037;-77
2023/01/10 06:58:01;;;;;;;0.25;0.25;;;;;;;4.21;100.00;101612.09;5004672;28;20388;-77
2023/01/10 07:00:27;;;;;;;0.30;0.30;;;;;;;4.00;100.00;101588.03;4995285;28;20029;-76
2023/01/10 07:02:55;;;;;;;0.25;0.25;;;;;;;4.24;100.00;101630.53;4986244;28;20037;-77
2023/01/10 07:05:20;;;;;;;0.30;0.30;;;;;;;4.01;100.00;101599.56;5005332;28;20033;-78
2023/01/10 07:07:46;;;;;;;0.10;0.10;;;;;;;3.92;100.00;101605.19;5003012;28;20037;-78
2023/01/10 07:10:11;;;;;;;0.20;0.20;;;;;;;4.14;100.00;101630.03;4982681;28;20023;-77
2023/01/10 07:12:36;;;;;;;0.20;0.20;;;;;;;4.00;100.00;101641.19;4997109;28;20100;-77
2023/01/10 07:15:02;;;;;;;0.28;0.28;;;;;;;3.94;100.00;101643.22;4994203;28;20050;-76
2023/01/10 07:17:29;;;;;;;0.20;0.20;;;;;;;3.58;100.00;101625.91;5001724;28;20033;-76
2023/01/10 07:19:54;;;;;;;0.20;0.20;;;;;;;3.48;100.00;101622.72;4998083;28;20388;-76
2023/01/10 07:22:20;;;;;;;0.20;0.20;;;;;;;3.67;100.00;101660.13;4983213;28;20038;-77
2023/01/10 07:24:45;;;;;;;0.10;0.10;;;;;;;3.60;100.00;101656.78;4999443;28;20033;-77
2023/01/10 07:27:10;;;;;;;0.20;0.20;;;;;;;3.60;100.00;101648.81;4999902;28;20033;-77
2023/01/10 07:29:35;;;;;;;0.20;0.20;;;;;;;3.70;100.00;101656.47;4979801;28;20033;-76
2023/01/10 07:32:01;;;;;;;0.20;0.20;;;;;;;3.35;100.00;101656.78;4998877;28;20161;-78
2023/01/10 07:34:26;;;;;;;0.20;0.20;;;;;;;3.36;100.00;101650.56;4987933;28;20073;-78
2023/01/10 07:36:51;;;;;;;0.20;0.20;;;;;;;3.38;100.00;101655.81;5005161;28;20117;-78
2023/01/10 07:39:17;;;;;;;0.15;0.15;;;;;;;3.40;100.00;101678.75;5004277;28;20121;-77
2023/01/10 07:41:42;;;;;;;0.20;0.20;;;;;;;3.38;100.00;101685.91;4998756;28;20034;-77
2023/01/10 07:44:07;;;;;;;0.22;0.22;;;;;;;3.35;100.00;101701.03;5004198;28;20048;-77
2023/01/10 07:46:33;;;;;;;0.30;0.30;;;;;;;3.30;100.00;101687.94;5001612;28;20045;-76
2023/01/10 07:48:58;;;;;;;0.20;0.20;;;;;;;3.48;100.00;101718.31;5004533;28;20030;-76
2023/01/10 07:51:23;;;;;;;0.20;0.20;;;;;;;3.11;100.00;101669.09;5005136;28;20058;-77
2023/01/10 07:53:49;;;;;;;0.30;0.30;;;;;;;3.40;100.00;101699.09;5007820;28;20061;-78
2023/01/10 07:56:14;;;;;;;0.25;0.25;;;;;;;3.39;100.00;101710.63;5009207;28;20033;-78
2023/01/10 07:58:39;;;;;;;0.20;0.20;;;;;;;3.42;100.00;101690.19;4985927;28;20527;-78
2023/01/10 08:01:05;;;;;;;0.20;0.20;;;;;;;3.47;100.00;101697.09;5004589;28;20065;-78
2023/01/10 08:03:32;;;;;;;0.30;0.30;;;;;;;3.57;100.00;101701.19;5006509;28;20118;-78
2023/01/10 08:06:02;;;;;;;0.30;0.30;;;;;;;3.81;100.00;101703.91;4991132;28;20503;-78
2023/01/10 08:08:28;;;;;;;0.30;0.30;;;;;;;3.57;100.00;101686.13;4987942;28;20058;-76
2023/01/10 08:10:53;;;;;;;0.20;0.20;;;;;;;3.64;100.00;101707.16;4985047;28;20026;-78
2023/01/10 08:13:18;;;;;;;0.28;0.28;;;;;;;3.89;100.00;101721.28;5003264;28;20040;-78
2023/01/10 08:15:45;;;;;;;0.30;0.30;;;;;;;3.70;100.00;101699.84;5004971;28;20113;-77
2023/01/10 08:18:11;;;;;;;0.20;0.20;;;;;;;3.79;100.00;101730.53;5000896;28;20526;-78
2023/01/10 08:20:36;;;;;;;0.25;0.25;;;;;;;3.73;100.00;101705.03;4985132;28;20037;-78
2023/01/10 08:23:02;;;;;;;0.20;0.20;;;;;;;4.03;100.00;101723.47;4993722;28;20124;-77
2023/01/10 08:25:27;;;;;;;0.30;0.30;;;;;;;4.15;100.00;101716.81;4998466;28;20053;-78
2023/01/10 08:27:52;;;;;;;0.20;0.20;;;;;;;3.87;100.00;101701.88;4990959;28;20596;-77
2023/01/10 08:30:18;;;;;;;0.20;0.20;;;;;;;4.13;100.00;101713.34;4986632;28;20476;-78
2023/01/10 08:32:43;;;;;;;0.20;0.20;;;;;;;4.20;100.00;101737.94;4996208;28;20061;-76
2023/01/10 08:35:10;;;;;;;0.20;0.20;;;;;;;4.26;100.00;101737.69;4984525;28;20025;-78
2023/01/10 08:37:35;;;;;;;0.30;0.30;;;;;;;4.21;100.00;101729.03;5004175;28;20036;-78
2023/01/10 08:40:01;;;;;;;0.20;0.20;;;;;;;3.92;100.00;101691.13;4999640;28;20042;-79
2023/01/10 08:42:26;;;;;;;0.20;0.20;;;;;;;4.20;100.00;101703.38;4999602;28;20045;-78
2023/01/10 08:44:53;;;;;;;0.20;0.20;;;;;;;4.27;100.00;101722.63;4998769;28;20060;-77
2023/01/10 08:47:18;;;;;;;0.20;0.20;;;;;;;4.34;100.00;101721.47;5001734;28;20380;-77
2023/01/10 08:49:45;;;;;;;0.20;0.20;;;;;;;4.40;100.00;101729.22;4997024;28;20026;-76
2023/01/10 08:52:11;;;;;;;0.20;0.20;;;;;;;4.34;100.00;101701.06;5001288;28;20676;-78
2023/01/10 08:54:36;;;;;;;0.30;0.30;;;;;;;4.43;100.00;101731.75;5000060;28;20034;-77
2023/01/10 08:57:01;;;;;;;0.20;0.20;;;;;;;4.27;100.00;101717.31;5000181;28;20029;-79
2023/01/10 08:59:27;;;;;;;0.20;0.20;;;;;;;4.46;100.00;101736.09;5004924;28;20068;-78
2023/01/10 09:01:53;;;;;;;0.30;0.30;;;;;;;4.37;100.00;101726.66;5004239;28;20120;-76
2023/01/10 09:04:18;;;;;;;0.20;0.20;;;;;;;4.37;100.00;101712.50;5004697;28;20137;-76
2023/01/10 09:06:43;;;;;;;0.20;0.20;;;;;;;4.25;100.00;101737.75;5001396;28;20041;-76
2023/01/10 09:09:09;;;;;;;0.20;0.20;;;;;;;4.18;100.00;101716.72;5005719;28;20033;-78
2023/01/10 09:11:34;;;;;;;0.20;0.20;;;;;;;4.35;100.00;101737.38;5001777;28;20069;-78
2023/01/10 09:14:00;;;;;;;0.20;0.20;;;;;;;4.18;100.00;101732.66;5002410;28;20025;-78
2023/01/10 09:16:25;;;;;;;0.20;0.20;;;;;;;4.03;100.00;101696.88;4995840;28;20042;-80
2023/01/10 09:18:50;;;;;;;0.30;0.30;;;;;;;4.17;100.00;101701.69;4995551;28;20397;-78
2023/01/10 09:21:16;;;;;;;0.20;0.20;;;;;;;4.28;100.00;101719.91;4997639;28;20042;-79
2023/01/10 09:23:42;;;;;;;0.25;0.25;;;;;;;4.32;100.00;101688.75;4998727;28;20022;-79
2023/01/10 09:26:08;;;;;;;0.20;0.20;;;;;;;4.49;100.00;101715.56;4999949;28;20149;-76
2023/01/10 09:28:33;;;;;;;0.30;0.30;;;;;;;4.38;100.00;101725.72;5003830;28;20476;-79
2023/01/10 09:30:59;;;;;;;0.20;0.20;;;;;;;4.17;100.00;101679.56;4987028;28;20025;-78
2023/01/10 09:33:25;;;;;;;0.20;0.20;;;;;;;4.32;100.00;101718.00;4998331;28;20043;-78
2023/01/10 09:35:50;;;;;;;0.30;0.30;;;;;;;4.45;100.00;101686.50;4976549;28;20025;-79
2023/01/10 09:38:17;;;;;;;0.30;0.30;;;;;;;4.63;100.00;101724.81;4997152;28;20069;-79
2023/01/10 09:41:23;;;;;;;0.20;0.20;;;;;;;4.45;100.00;101716.59;4985852;28;20029;-78
2023/01/10 09:44:16;;;;;;;0.20;0.20;;;;;;;4.42;100.00;101703.44;5003067;28;20351;-79
2023/01/10 09:46:58;;;;;;;0.20;0.20;;;;;;;4.45;100.00;101705.97;5011600;28;20156;-78
2023/01/10 09:49:46;;;;;;;0.20;0.20;;;;;;;4.50;100.00;101717.31;4990950;28;20065;-79
2023/01/10 09:52:33;;;;;;;0.20;0.20;;;;;;;4.37;100.00;101693.91;4999135;28;20045;-78
2023/01/10 09:55:06;;;;;;;0.22;0.22;;;;;;;4.42;100.00;101695.44;4995099;28;20018;-78
2023/01/10 09:57:32;;;;;;;0.20;0.20;;;;;;;4.33;100.00;101691.34;4985217;28;20029;-78
2023/01/10 09:59:57;;;;;;;0.20;0.20;;;;;;;4.44;100.00;101690.94;4992157;28;20038;-78
2023/01/10 10:02:28;;;;;;;0.20;0.20;;;;;;;4.79;100.00;101725.94;4992589;28;20045;-78
2023/01/10 10:05:03;;;;;;;0.20;0.20;;;;;;;4.74;100.00;101721.75;5001238;28;20609;-78
2023/01/10 10:07:28;;;;;;;0.20;0.20;;;;;;;4.65;100.00;101697.22;4995899;28;20157;-78
2023/01/10 10:09:54;;;;;;;0.20;0.20;;;;;;;4.65;100.00;101693.69;4998816;28;20101;-78
2023/01/10 10:12:35;;;;;;;0.20;0.20;;;;;;;4.78;100.00;101713.56;4999564;28;20056;-78
2023/01/10 10:15:13;;;;;;;0.20;0.20;;;;;;;4.58;100.00;101676.25;4996129;28;20113;-78
2023/01/10 10:17:56;;;;;;;0.20;0.20;;;;;;;4.88;100.00;101731.84;4994496;28;20434;-78
2023/01/10 10:20:27;;;;;;;0.20;0.20;;;;;;;5.03;100.00;101725.06;5002030;28;20038;-76
2023/01/10 10:23:17;;;;;;;0.20;0.20;;;;;;;5.03;100.00;101719.72;5000843;28;20117;-78
2023/01/10 10:25:59;;;;;;;0.20;0.20;;;;;;;4.97;100.00;101696.88;4998106;28;20018;-78
2023/01/10 10:28:48;;;;;;;0.20;0.20;;;;;;;5.35;100.00;101696.22;4995018;28;20513;-78
2023/01/10 10:31:41;;;;;;;0.20;0.20;;;;;;;5.17;100.00;101697.84;5000902;28;20498;-78
2023/01/10 10:34:11;;;;;;;0.20;0.20;;;;;;;5.17;100.00;101688.06;5002250;28;20033;-77
2023/01/10 10:36:43;;;;;;;0.28;0.28;;;;;;;4.90;100.00;101669.63;4998593;28;20037;-79
2023/01/10 10:39:17;;;;;;;0.20;0.20;;;;;;;5.27;100.00;101679.72;4997531;28;20026;-76
2023/01/10 10:41:44;;;;;;;0.20;0.20;;;;;;;5.45;100.00;101686.03;4995523;28;20022;-78
2023/01/10 10:44:42;;;;;;;0.20;0.20;;;;;;;5.13;100.00;101654.50;4984384;28;20548;-76
2023/01/10 10:47:32;;;;;;;0.17;0.17;;;;;;;5.19;100.00;101642.72;4975922;28;20026;-78
2023/01/10 10:50:04;;;;;;;0.20;0.20;;;;;;;5.38;100.00;101666.78;4979771;28;20432;-79
2023/01/10 10:52:33;;;;;;;0.20;0.20;;;;;;;5.33;100.00;101664.31;5000932;28;20507;-76
2023/01/10 10:54:59;;;;;;;0.30;0.30;;;;;;;5.20;100.00;101671.97;4991722;28;20063;-78
2023/01/10 10:57:27;;;;;;;0.30;0.30;;;;;;;5.15;100.00;101649.13;4990435;28;20038;-77
2023/01/10 10:59:52;;;;;;;0.20;0.20;;;;;;;5.25;100.00;101666.44;4978738;28;20034;-77
2023/01/10 11:02:24;;;;;;;0.20;0.20;;;;;;;5.52;100.00;101663.53;4980914;28;20452;-77
2023/01/10 11:04:51;;;;;;;0.25;0.25;;;;;;;5.35;100.00;101630.50;4987139;28;20018;-79
2023/01/10 11:07:17;;;;;;;0.20;0.20;;;;;;;5.58;100.00;101647.28;4982196;28;20026;-78
2023/01/10 11:09:49;;;;;;;0.20;0.20;;;;;;;5.24;100.00;101636.31;4984875;28;20065;-79
2023/01/10 11:12:15;;;;;;;0.20;0.20;;;;;;;5.48;100.00;101648.59;4984418;28;20048;-78
2023/01/10 11:14:50;;;;;;;0.10;0.10;;;;;;;5.62;100.00;101640.00;4981982;28;20068;-77
2023/01/10 11:17:18;;;;;;;0.20;0.20;;;;;;;5.48;100.00;101640.63;5003169;28;20079;-79
2023/01/10 11:20:14;;;;;;;0.20;0.20;;;;;;;5.37;100.00;101620.66;5001648;28;20080;-77
2023/01/10 11:22:46;;;;;;;0.20;0.20;;;;;;;5.28;100.00;101621.03;4997000;28;20034;-78
2023/01/10 11:25:14;;;;;;;0.20;0.20;;;;;;;5.56;100.00;101628.69;4982272;28;20441;-77
2023/01/10 11:28:12;;;;;;;0.22;0.22;;;;;;;5.48;100.00;101641.50;4990790;28;20457;-77
2023/01/10 11:30:37;;;;;;;0.20;0.20;;;;;;;5.35;100.00;101592.34;4996124;28;20088;-77
2023/01/10 11:33:06;;;;;;;0.20;0.20;;;;;;;5.65;100.00;101635.44;4984015;28;20026;-76
2023/01/10 11:35:36;;;;;;;0.22;0.22;;;;;;;5.66;100.00;101629.16;4987703;28;20036;-77
2023/01/10 11:38:13;;;;;;;0.20;0.20;;;;;;;5.63;100.00;101626.63;4996623;28;20149;-78
2023/01/10 11:40:52;;;;;;;0.20;0.20;;;;;;;5.78;100.00;101625.09;5001126;28;20030;-78